sensor_id;sensor_type;location;lat;lon;timestamp;pressure;altitude;pressure_sealevel;temperature;humidity
4044;BME280;2036;51.578;7.108;2022-08-21T00:01:52;100944.91;;;19.29;100.00
4044;BME280;2036;51.578;7.108;2022-08-21T00:04:18;100944.09;;;19.29;100.00
4044;BME280;2036;51.578;7.108;2022-08-21T00:06:44;100936.25;;;19.27;98.74
4044;BME280;2036;51.578;7.108;2022-08-21T00:09:10;100937.28;;;19.26;100.00
4044;BME280;2036;51.578;7.108;2022-08-21T00:11:38;100935.41;;;19.27;100.00
4044;BME280;2036;51.578;7.108;2022-08-21T00:14:08;100932.28;;;19.23;100.00
4044;BME280;2036;51.578;7.108;2022-08-21T00:16:34;100930.09;;;19.19;100.00
4044;BME280;2036;51.578;7.108;2022-08-21T00:19:00;100929.59;;;19.15;100.00
4044;BME280;2036;51.578;7.108;2022-08-21T00:21:26;100923.47;;;19.15;100.00
4044;BME280;2036;51.578;7.108;2022-08-21T00:23:52;100914.78;;;19.12;100.00
4044;BME280;2036;51.578;7.108;2022-08-21T00:26:18;100912.13;;;19.04;100.00
4044;BME280;2036;51.578;7.108;2022-08-21T00:28:44;100917.75;;;19.01;100.00
4044;BME280;2036;51.578;7.108;2022-08-21T00:31:12;100908.63;;;18.96;100.00
4044;BME280;2036;51.578;7.108;2022-08-21T00:33:38;100910.25;;;18.89;100.00
4044;BME280;2036;51.578;7.108;2022-08-21T00:36:04;100917.72;;;18.85;99.74
4044;BME280;2036;51.578;7.108;2022-08-21T00:38:30;100916.41;;;18.81;98.81
4044;BME280;2036;51.578;7.108;2022-08-21T00:41:01;100916.19;;;18.75;96.55
4044;BME280;2036;51.578;7.108;2022-08-21T00:43:31;100917.16;;;18.66;100.00
4044;BME280;2036;51.578;7.108;2022-08-21T00:45:59;100923.63;;;18.63;100.00
4044;BME280;2036;51.578;7.108;2022-08-21T00:48:26;100915.34;;;18.58;100.00
4044;BME280;2036;51.578;7.108;2022-08-21T00:51:14;100918.28;;;18.55;100.00
4044;BME280;2036;51.578;7.108;2022-08-21T00:53:44;100916.47;;;18.56;97.69
4044;BME280;2036;51.578;7.108;2022-08-21T00:56:11;100922.78;;;18.55;95.67
4044;BME280;2036;51.578;7.108;2022-08-21T00:58:40;100920.44;;;18.52;94.59
4044;BME280;2036;51.578;7.108;2022-08-21T01:01:07;100922.19;;;18.43;100.00
4044;BME280;2036;51.578;7.108;2022-08-21T01:03:35;100921.22;;;18.44;100.00
4044;BME280;2036;51.578;7.108;2022-08-21T01:06:02;100917.06;;;18.41;100.00
4044;BME280;2036;51.578;7.108;2022-08-21T01:08:30;100924.31;;;18.39;100.00
4044;BME280;2036;51.578;7.108;2022-08-21T01:10:57;100918.69;;;18.34;100.00
4044;BME280;2036;51.578;7.108;2022-08-21T01:13:25;100919.66;;;18.33;100.00
4044;BME280;2036;51.578;7.108;2022-08-21T01:15:55;100918.47;;;18.28;100.00
4044;BME280;2036;51.578;7.108;2022-08-21T01:18:22;100923.44;;;18.23;100.00
4044;BME280;2036;51.578;7.108;2022-08-21T01:21:15;100916.63;;;18.20;99.80
4044;BME280;2036;51.578;7.108;2022-08-21T01:23:45;100921.69;;;18.14;100.00
4044;BME280;2036;51.578;7.108;2022-08-21T01:26:15;100928.31;;;18.10;97.55
4044;BME280;2036;51.578;7.108;2022-08-21T01:28:59;100929.09;;;18.02;97.50
4044;BME280;2036;51.578;7.108;2022-08-21T01:31:28;100927.41;;;17.93;100.00
4044;BME280;2036;51.578;7.108;2022-08-21T01:33:56;100926.50;;;17.85;96.84
4044;BME280;2036;51.578;7.108;2022-08-21T01:36:23;100927.13;;;17.78;97.80
4044;BME280;2036;51.578;7.108;2022-08-21T01:38:49;100923.88;;;17.67;100.00
4044;BME280;2036;51.578;7.108;2022-08-21T01:41:16;100929.16;;;17.59;100.00
4044;BME280;2036;51.578;7.108;2022-08-21T01:43:43;100929.91;;;17.51;100.00
4044;BME280;2036;51.578;7.108;2022-08-21T01:46:11;100928.34;;;17.49;100.00
4044;BME280;2036;51.578;7.108;2022-08-21T01:48:37;100922.84;;;17.42;100.00
4044;BME280;2036;51.578;7.108;2022-08-21T01:51:04;100925.69;;;17.31;100.00
4044;BME280;2036;51.578;7.108;2022-08-21T01:53:31;100926.31;;;17.25;100.00
4044;BME280;2036;51.578;7.108;2022-08-21T01:55:59;100921.31;;;17.22;100.00
4044;BME280;2036;51.578;7.108;2022-08-21T01:58:25;100920.78;;;17.19;100.00
4044;BME280;2036;51.578;7.108;2022-08-21T02:00:51;100913.41;;;17.13;100.00
4044;BME280;2036;51.578;7.108;2022-08-21T02:03:17;100912.34;;;17.05;100.00
4044;BME280;2036;51.578;7.108;2022-08-21T02:05:43;100914.63;;;17.00;100.00
4044;BME280;2036;51.578;7.108;2022-08-21T02:08:08;100907.56;;;16.91;100.00
4044;BME280;2036;51.578;7.108;2022-08-21T02:10:35;100908.03;;;16.87;100.00
4044;BME280;2036;51.578;7.108;2022-08-21T02:13:01;100916.47;;;16.73;100.00
4044;BME280;2036;51.578;7.108;2022-08-21T02:15:28;100908.97;;;16.68;100.00
4044;BME280;2036;51.578;7.108;2022-08-21T02:17:59;100918.75;;;16.68;100.00
4044;BME280;2036;51.578;7.108;2022-08-21T02:20:29;100916.53;;;16.63;100.00
4044;BME280;2036;51.578;7.108;2022-08-21T02:22:55;100905.69;;;16.57;100.00
4044;BME280;2036;51.578;7.108;2022-08-21T02:25:24;100906.84;;;16.44;100.00
4044;BME280;2036;51.578;7.108;2022-08-21T02:27:51;100910.16;;;16.47;100.00
4044;BME280;2036;51.578;7.108;2022-08-21T02:30:28;100901.09;;;16.49;100.00
4044;BME280;2036;51.578;7.108;2022-08-21T02:32:56;100903.06;;;16.47;100.00
4044;BME280;2036;51.578;7.108;2022-08-21T02:35:23;100895.56;;;16.42;100.00
4044;BME280;2036;51.578;7.108;2022-08-21T02:37:56;100905.63;;;16.39;100.00
4044;BME280;2036;51.578;7.108;2022-08-21T02:40:27;100895.88;;;16.30;100.00
4044;BME280;2036;51.578;7.108;2022-08-21T02:42:53;100898.00;;;16.26;100.00
4044;BME280;2036;51.578;7.108;2022-08-21T02:45:20;100900.69;;;16.17;100.00
4044;BME280;2036;51.578;7.108;2022-08-21T02:48:06;100899.44;;;16.11;100.00
4044;BME280;2036;51.578;7.108;2022-08-21T02:50:37;100905.34;;;16.05;100.00
4044;BME280;2036;51.578;7.108;2022-08-21T02:53:05;100901.69;;;16.06;100.00
4044;BME280;2036;51.578;7.108;2022-08-21T02:55:33;100907.31;;;16.03;100.00
4044;BME280;2036;51.578;7.108;2022-08-21T02:58:00;100912.72;;;16.02;100.00
4044;BME280;2036;51.578;7.108;2022-08-21T03:00:29;100912.03;;;16.00;100.00
4044;BME280;2036;51.578;7.108;2022-08-21T03:02:56;100916.47;;;15.99;100.00
4044;BME280;2036;51.578;7.108;2022-08-21T03:05:24;100903.84;;;15.93;100.00
4044;BME280;2036;51.578;7.108;2022-08-21T03:07:51;100912.63;;;15.94;100.00
4044;BME280;2036;51.578;7.108;2022-08-21T03:10:19;100909.13;;;15.93;100.00
4044;BME280;2036;51.578;7.108;2022-08-21T03:12:48;100903.16;;;15.91;100.00
4044;BME280;2036;51.578;7.108;2022-08-21T03:15:18;100901.47;;;15.90;100.00
4044;BME280;2036;51.578;7.108;2022-08-21T03:17:45;100890.88;;;15.90;100.00
4044;BME280;2036;51.578;7.108;2022-08-21T03:20:13;100894.63;;;15.97;100.00
4044;BME280;2036;51.578;7.108;2022-08-21T03:22:40;100897.56;;;16.04;100.00
4044;BME280;2036;51.578;7.108;2022-08-21T03:25:07;100885.13;;;16.04;100.00
4044;BME280;2036;51.578;7.108;2022-08-21T03:27:34;100891.94;;;16.07;100.00
4044;BME280;2036;51.578;7.108;2022-08-21T03:30:02;100887.22;;;16.10;100.00
4044;BME280;2036;51.578;7.108;2022-08-21T03:32:29;100890.53;;;16.12;100.00
4044;BME280;2036;51.578;7.108;2022-08-21T03:34:55;100887.50;;;16.07;100.00
4044;BME280;2036;51.578;7.108;2022-08-21T03:37:21;100895.72;;;16.04;100.00
4044;BME280;2036;51.578;7.108;2022-08-21T03:39:47;100890.41;;;16.04;100.00
4044;BME280;2036;51.578;7.108;2022-08-21T03:42:13;100892.94;;;16.06;100.00
4044;BME280;2036;51.578;7.108;2022-08-21T03:44:39;100889.59;;;16.04;100.00
4044;BME280;2036;51.578;7.108;2022-08-21T03:47:05;100897.84;;;16.01;100.00
4044;BME280;2036;51.578;7.108;2022-08-21T03:49:31;100899.63;;;16.00;100.00
4044;BME280;2036;51.578;7.108;2022-08-21T03:51:57;100886.41;;;16.00;100.00
4044;BME280;2036;51.578;7.108;2022-08-21T03:54:23;100889.47;;;15.96;100.00
4044;BME280;2036;51.578;7.108;2022-08-21T03:56:49;100889.91;;;15.91;100.00
4044;BME280;2036;51.578;7.108;2022-08-21T03:59:15;100892.72;;;15.90;100.00
4044;BME280;2036;51.578;7.108;2022-08-21T04:01:56;100893.13;;;15.85;100.00
4044;BME280;2036;51.578;7.108;2022-08-21T04:04:23;100897.59;;;15.85;100.00
4044;BME280;2036;51.578;7.108;2022-08-21T04:06:49;100893.84;;;15.78;100.00
4044;BME280;2036;51.578;7.108;2022-08-21T04:09:17;100891.63;;;15.73;100.00
4044;BME280;2036;51.578;7.108;2022-08-21T04:11:43;100893.03;;;15.67;100.00
4044;BME280;2036;51.578;7.108;2022-08-21T04:14:09;100902.78;;;15.67;100.00
4044;BME280;2036;51.578;7.108;2022-08-21T04:16:35;100902.38;;;15.62;100.00
4044;BME280;2036;51.578;7.108;2022-08-21T04:19:01;100900.72;;;15.61;100.00
4044;BME280;2036;51.578;7.108;2022-08-21T04:21:27;100902.94;;;15.56;100.00
4044;BME280;2036;51.578;7.108;2022-08-21T04:23:56;100903.78;;;15.47;100.00
4044;BME280;2036;51.578;7.108;2022-08-21T04:26:23;100910.28;;;15.43;100.00
4044;BME280;2036;51.578;7.108;2022-08-21T04:28:48;100914.03;;;15.40;100.00
4044;BME280;2036;51.578;7.108;2022-08-21T04:31:14;100909.16;;;15.36;100.00
4044;BME280;2036;51.578;7.108;2022-08-21T04:33:40;100911.81;;;15.36;100.00
4044;BME280;2036;51.578;7.108;2022-08-21T04:36:07;100907.78;;;15.32;100.00
4044;BME280;2036;51.578;7.108;2022-08-21T04:38:33;100910.00;;;15.27;100.00
4044;BME280;2036;51.578;7.108;2022-08-21T04:40:59;100906.94;;;15.22;100.00
4044;BME280;2036;51.578;7.108;2022-08-21T04:43:25;100912.22;;;15.22;100.00
4044;BME280;2036;51.578;7.108;2022-08-21T04:45:52;100907.66;;;15.24;100.00
4044;BME280;2036;51.578;7.108;2022-08-21T04:48:21;100911.53;;;15.20;100.00
4044;BME280;2036;51.578;7.108;2022-08-21T04:51:19;100907.94;;;15.21;100.00
4044;BME280;2036;51.578;7.108;2022-08-21T04:54:10;100905.16;;;15.32;100.00
4044;BME280;2036;51.578;7.108;2022-08-21T04:59:47;100917.72;;;15.49;100.00
4044;BME280;2036;51.578;7.108;2022-08-21T05:02:16;100909.63;;;15.50;100.00
4044;BME280;2036;51.578;7.108;2022-08-21T05:04:50;100930.50;;;15.53;100.00
4044;BME280;2036;51.578;7.108;2022-08-21T05:07:23;100924.09;;;15.56;100.00
4044;BME280;2036;51.578;7.108;2022-08-21T05:09:50;100925.47;;;15.60;100.00
4044;BME280;2036;51.578;7.108;2022-08-21T05:12:17;100911.97;;;15.63;100.00
4044;BME280;2036;51.578;7.108;2022-08-21T05:14:44;100921.28;;;15.67;100.00
4044;BME280;2036;51.578;7.108;2022-08-21T05:17:10;100921.03;;;15.70;100.00
4044;BME280;2036;51.578;7.108;2022-08-21T05:19:36;100930.22;;;15.76;100.00
4044;BME280;2036;51.578;7.108;2022-08-21T05:22:05;100930.31;;;15.84;100.00
4044;BME280;2036;51.578;7.108;2022-08-21T05:24:33;100929.22;;;15.86;100.00
4044;BME280;2036;51.578;7.108;2022-08-21T05:26:59;100926.38;;;15.97;100.00
4044;BME280;2036;51.578;7.108;2022-08-21T05:29:25;100931.81;;;16.05;100.00
4044;BME280;2036;51.578;7.108;2022-08-21T05:31:52;100925.81;;;16.13;100.00
4044;BME280;2036;51.578;7.108;2022-08-21T05:34:22;100932.72;;;16.23;100.00
4044;BME280;2036;51.578;7.108;2022-08-21T05:36:48;100926.97;;;16.28;100.00
4044;BME280;2036;51.578;7.108;2022-08-21T05:39:15;100930.28;;;16.39;100.00
4044;BME280;2036;51.578;7.108;2022-08-21T05:41:41;100926.91;;;16.47;100.00
4044;BME280;2036;51.578;7.108;2022-08-21T05:44:07;100929.72;;;16.55;100.00
4044;BME280;2036;51.578;7.108;2022-08-21T05:46:33;100931.31;;;16.66;100.00
4044;BME280;2036;51.578;7.108;2022-08-21T05:48:59;100925.56;;;16.70;100.00
4044;BME280;2036;51.578;7.108;2022-08-21T05:51:24;100930.81;;;16.80;100.00
4044;BME280;2036;51.578;7.108;2022-08-21T05:53:53;100929.63;;;16.92;100.00
4044;BME280;2036;51.578;7.108;2022-08-21T05:56:18;100921.09;;;16.98;100.00
4044;BME280;2036;51.578;7.108;2022-08-21T05:58:44;100922.66;;;17.08;100.00
4044;BME280;2036;51.578;7.108;2022-08-21T06:01:10;100923.28;;;17.20;100.00
4044;BME280;2036;51.578;7.108;2022-08-21T06:03:39;100917.91;;;17.30;100.00
4044;BME280;2036;51.578;7.108;2022-08-21T06:06:06;100919.50;;;17.40;100.00
4044;BME280;2036;51.578;7.108;2022-08-21T06:08:32;100911.75;;;17.47;100.00
4044;BME280;2036;51.578;7.108;2022-08-21T06:10:59;100907.38;;;17.55;100.00
4044;BME280;2036;51.578;7.108;2022-08-21T06:13:26;100908.59;;;17.61;100.00
4044;BME280;2036;51.578;7.108;2022-08-21T06:18:35;100907.94;;;17.85;100.00
4044;BME280;2036;51.578;7.108;2022-08-21T06:21:04;100902.34;;;17.96;100.00
4044;BME280;2036;51.578;7.108;2022-08-21T06:23:32;100909.38;;;18.05;100.00
4044;BME280;2036;51.578;7.108;2022-08-21T06:25:58;100900.44;;;18.14;100.00
4044;BME280;2036;51.578;7.108;2022-08-21T06:28:24;100897.00;;;18.21;100.00
4044;BME280;2036;51.578;7.108;2022-08-21T06:30:50;100909.88;;;18.34;100.00
4044;BME280;2036;51.578;7.108;2022-08-21T06:33:16;100917.66;;;18.35;100.00
4044;BME280;2036;51.578;7.108;2022-08-21T06:35:42;100915.47;;;18.49;100.00
4044;BME280;2036;51.578;7.108;2022-08-21T06:38:08;100911.47;;;18.53;100.00
4044;BME280;2036;51.578;7.108;2022-08-21T06:40:34;100922.13;;;18.61;100.00
4044;BME280;2036;51.578;7.108;2022-08-21T06:43:18;100922.16;;;18.69;100.00
4044;BME280;2036;51.578;7.108;2022-08-21T06:45:44;100908.06;;;18.76;100.00
4044;BME280;2036;51.578;7.108;2022-08-21T06:48:10;100916.22;;;18.83;100.00
4044;BME280;2036;51.578;7.108;2022-08-21T06:50:36;100911.28;;;18.96;100.00
4044;BME280;2036;51.578;7.108;2022-08-21T06:53:07;100909.47;;;19.04;100.00
4044;BME280;2036;51.578;7.108;2022-08-21T06:55:34;100907.97;;;19.18;100.00
4044;BME280;2036;51.578;7.108;2022-08-21T06:58:03;100911.31;;;19.20;100.00
4044;BME280;2036;51.578;7.108;2022-08-21T07:00:29;100909.50;;;19.29;100.00
4044;BME280;2036;51.578;7.108;2022-08-21T07:02:55;100914.00;;;19.36;100.00
4044;BME280;2036;51.578;7.108;2022-08-21T07:05:22;100902.72;;;19.42;100.00
4044;BME280;2036;51.578;7.108;2022-08-21T07:07:50;100910.53;;;19.52;100.00
4044;BME280;2036;51.578;7.108;2022-08-21T07:10:16;100909.84;;;19.58;100.00
4044;BME280;2036;51.578;7.108;2022-08-21T07:12:42;100907.69;;;19.69;100.00
4044;BME280;2036;51.578;7.108;2022-08-21T07:15:08;100903.00;;;19.79;100.00
4044;BME280;2036;51.578;7.108;2022-08-21T07:17:34;100908.16;;;19.97;100.00
4044;BME280;2036;51.578;7.108;2022-08-21T07:20:00;100909.09;;;20.20;100.00
4044;BME280;2036;51.578;7.108;2022-08-21T07:22:26;100899.84;;;20.47;100.00
4044;BME280;2036;51.578;7.108;2022-08-21T07:24:54;100902.84;;;20.83;100.00
4044;BME280;2036;51.578;7.108;2022-08-21T07:27:20;100898.00;;;21.17;100.00
4044;BME280;2036;51.578;7.108;2022-08-21T07:29:46;100897.28;;;21.60;100.00
4044;BME280;2036;51.578;7.108;2022-08-21T07:32:12;100899.69;;;22.07;100.00
4044;BME280;2036;51.578;7.108;2022-08-21T07:34:41;100894.13;;;22.53;100.00
4044;BME280;2036;51.578;7.108;2022-08-21T07:37:07;100897.56;;;22.97;100.00
4044;BME280;2036;51.578;7.108;2022-08-21T07:39:33;100899.50;;;23.24;100.00
4044;BME280;2036;51.578;7.108;2022-08-21T07:41:59;100904.34;;;23.56;100.00
4044;BME280;2036;51.578;7.108;2022-08-21T07:44:26;100898.41;;;23.89;100.00
4044;BME280;2036;51.578;7.108;2022-08-21T07:46:51;100908.97;;;24.18;100.00
4044;BME280;2036;51.578;7.108;2022-08-21T07:49:18;100901.72;;;24.59;100.00
4044;BME280;2036;51.578;7.108;2022-08-21T07:51:43;100908.06;;;24.92;100.00
4044;BME280;2036;51.578;7.108;2022-08-21T07:54:09;100897.59;;;25.17;100.00
4044;BME280;2036;51.578;7.108;2022-08-21T07:56:35;100898.66;;;25.42;100.00
4044;BME280;2036;51.578;7.108;2022-08-21T07:59:01;100902.00;;;25.64;100.00
4044;BME280;2036;51.578;7.108;2022-08-21T08:01:29;100905.72;;;25.83;100.00
4044;BME280;2036;51.578;7.108;2022-08-21T08:03:55;100901.75;;;26.05;97.45
4044;BME280;2036;51.578;7.108;2022-08-21T08:06:24;100895.22;;;26.45;100.00
4044;BME280;2036;51.578;7.108;2022-08-21T08:08:51;100898.53;;;26.54;91.02
4044;BME280;2036;51.578;7.108;2022-08-21T08:11:17;100902.78;;;26.74;94.90
4044;BME280;2036;51.578;7.108;2022-08-21T08:13:51;100902.75;;;26.87;93.06
4044;BME280;2036;51.578;7.108;2022-08-21T08:16:18;100901.78;;;27.13;96.12
4044;BME280;2036;51.578;7.108;2022-08-21T08:18:45;100898.88;;;27.39;91.74
4044;BME280;2036;51.578;7.108;2022-08-21T08:21:12;100907.97;;;27.45;93.46
4044;BME280;2036;51.578;7.108;2022-08-21T08:23:38;100899.94;;;27.63;94.70
4044;BME280;2036;51.578;7.108;2022-08-21T08:26:04;100895.66;;;27.80;87.20
4044;BME280;2036;51.578;7.108;2022-08-21T08:28:32;100896.25;;;28.07;94.45
4044;BME280;2036;51.578;7.108;2022-08-21T08:31:00;100905.25;;;28.19;80.22
4044;BME280;2036;51.578;7.108;2022-08-21T08:33:27;100897.53;;;28.22;79.92
4044;BME280;2036;51.578;7.108;2022-08-21T08:35:53;100897.53;;;28.22;75.35
4044;BME280;2036;51.578;7.108;2022-08-21T08:38:23;100894.06;;;28.52;74.33
4044;BME280;2036;51.578;7.108;2022-08-21T08:44:03;100889.16;;;28.78;70.66
4044;BME280;2036;51.578;7.108;2022-08-21T08:49:19;100889.22;;;29.20;66.29
4044;BME280;2036;51.578;7.108;2022-08-21T08:52:11;100891.09;;;29.19;67.18
4044;BME280;2036;51.578;7.108;2022-08-21T08:55:11;100886.66;;;29.25;66.61
4044;BME280;2036;51.578;7.108;2022-08-21T08:57:41;100894.22;;;29.46;68.21
4044;BME280;2036;51.578;7.108;2022-08-21T09:00:12;100892.56;;;29.56;69.79
4044;BME280;2036;51.578;7.108;2022-08-21T09:02:41;100887.88;;;29.63;65.86
4044;BME280;2036;51.578;7.108;2022-08-21T09:05:17;100884.38;;;29.98;66.73
4044;BME280;2036;51.578;7.108;2022-08-21T09:10:57;100871.28;;;30.69;65.20
4044;BME280;2036;51.578;7.108;2022-08-21T09:26:21;100874.44;;;30.78;55.52
4044;BME280;2036;51.578;7.108;2022-08-21T09:28:58;100868.19;;;30.77;55.85
4044;BME280;2036;51.578;7.108;2022-08-21T09:31:33;100864.78;;;30.70;55.55
4044;BME280;2036;51.578;7.108;2022-08-21T09:34:09;100877.50;;;30.70;58.63
4044;BME280;2036;51.578;7.108;2022-08-21T09:36:49;100871.38;;;30.74;55.61
4044;BME280;2036;51.578;7.108;2022-08-21T09:39:39;100862.69;;;31.17;54.53
4044;BME280;2036;51.578;7.108;2022-08-21T09:42:09;100871.91;;;31.16;54.84
4044;BME280;2036;51.578;7.108;2022-08-21T09:44:38;100866.75;;;31.48;53.19
4044;BME280;2036;51.578;7.108;2022-08-21T09:47:11;100863.22;;;31.47;51.42
4044;BME280;2036;51.578;7.108;2022-08-21T09:49:41;100866.00;;;31.69;48.50
4044;BME280;2036;51.578;7.108;2022-08-21T09:52:21;100870.59;;;31.35;48.58
4044;BME280;2036;51.578;7.108;2022-08-21T09:54:53;100865.16;;;31.68;48.73
4044;BME280;2036;51.578;7.108;2022-08-21T09:57:28;100861.63;;;31.68;47.98
4044;BME280;2036;51.578;7.108;2022-08-21T10:00:29;100871.78;;;31.56;47.01
4044;BME280;2036;51.578;7.108;2022-08-21T10:03:16;100863.09;;;31.75;47.23
4044;BME280;2036;51.578;7.108;2022-08-21T10:06:23;100863.97;;;32.14;49.12
4044;BME280;2036;51.578;7.108;2022-08-21T10:08:49;100853.09;;;32.14;46.91
4044;BME280;2036;51.578;7.108;2022-08-21T10:11:17;100852.28;;;32.57;47.35
4044;BME280;2036;51.578;7.108;2022-08-21T10:17:19;100856.56;;;32.53;45.09
4044;BME280;2036;51.578;7.108;2022-08-21T10:19:56;100862.66;;;32.43;45.17
4044;BME280;2036;51.578;7.108;2022-08-21T10:23:38;100848.22;;;32.60;45.72
4044;BME280;2036;51.578;7.108;2022-08-21T10:31:41;100854.25;;;31.47;42.99
4044;BME280;2036;51.578;7.108;2022-08-21T10:36:56;100848.06;;;31.68;44.67
4044;BME280;2036;51.578;7.108;2022-08-21T10:42:47;100849.09;;;32.65;46.58
4044;BME280;2036;51.578;7.108;2022-08-21T10:48:43;100838.00;;;32.98;43.67
4044;BME280;2036;51.578;7.108;2022-08-21T10:57:56;100851.56;;;33.20;44.52
4044;BME280;2036;51.578;7.108;2022-08-21T11:00:49;100837.63;;;33.12;42.75
4044;BME280;2036;51.578;7.108;2022-08-21T11:06:20;100837.44;;;33.55;43.20
4044;BME280;2036;51.578;7.108;2022-08-21T11:08:53;100837.09;;;32.88;40.33
4044;BME280;2036;51.578;7.108;2022-08-21T11:12:03;100839.78;;;32.83;41.68
4044;BME280;2036;51.578;7.108;2022-08-21T11:14:55;100830.22;;;32.54;41.92
4044;BME280;2036;51.578;7.108;2022-08-21T11:17:36;100839.00;;;32.61;42.98
4044;BME280;2036;51.578;7.108;2022-08-21T11:20:50;100838.97;;;32.39;41.41
4044;BME280;2036;51.578;7.108;2022-08-21T11:23:36;100839.25;;;32.37;43.32
4044;BME280;2036;51.578;7.108;2022-08-21T11:26:17;100832.31;;;32.03;43.20
4044;BME280;2036;51.578;7.108;2022-08-21T11:28:52;100836.03;;;32.19;43.28
4044;BME280;2036;51.578;7.108;2022-08-21T11:31:26;100833.19;;;32.09;43.17
4044;BME280;2036;51.578;7.108;2022-08-21T11:34:14;100819.94;;;32.12;43.31
4044;BME280;2036;51.578;7.108;2022-08-21T11:40:14;100825.94;;;32.41;41.78
4044;BME280;2036;51.578;7.108;2022-08-21T11:43:01;100832.22;;;32.41;41.39
4044;BME280;2036;51.578;7.108;2022-08-21T11:51:10;100839.56;;;31.98;42.46
4044;BME280;2036;51.578;7.108;2022-08-21T11:54:08;100845.00;;;32.19;41.76
4044;BME280;2036;51.578;7.108;2022-08-21T11:56:51;100833.13;;;31.87;41.39
4044;BME280;2036;51.578;7.108;2022-08-21T12:02:21;100846.44;;;31.50;42.20
4044;BME280;2036;51.578;7.108;2022-08-21T12:04:55;100839.34;;;31.66;41.98
4044;BME280;2036;51.578;7.108;2022-08-21T12:07:42;100837.72;;;31.65;41.88
4044;BME280;2036;51.578;7.108;2022-08-21T12:10:16;100829.53;;;31.98;41.47
4044;BME280;2036;51.578;7.108;2022-08-21T12:12:49;100828.00;;;32.29;40.92
4044;BME280;2036;51.578;7.108;2022-08-21T12:17:59;100827.59;;;32.42;41.26
4044;BME280;2036;51.578;7.108;2022-08-21T12:21:03;100827.00;;;32.57;40.73
4044;BME280;2036;51.578;7.108;2022-08-21T12:23:44;100827.06;;;32.62;41.13
4044;BME280;2036;51.578;7.108;2022-08-21T12:29:33;100819.00;;;33.67;40.65
4044;BME280;2036;51.578;7.108;2022-08-21T12:37:57;100814.78;;;34.68;41.02
4044;BME280;2036;51.578;7.108;2022-08-21T12:40:40;100817.44;;;34.43;39.40
4044;BME280;2036;51.578;7.108;2022-08-21T12:43:15;100827.22;;;34.39;38.88
4044;BME280;2036;51.578;7.108;2022-08-21T12:45:47;100813.38;;;34.51;40.09
4044;BME280;2036;51.578;7.108;2022-08-21T12:54:27;100807.75;;;35.13;37.93
4044;BME280;2036;51.578;7.108;2022-08-21T12:57:04;100815.94;;;35.23;37.54
4044;BME280;2036;51.578;7.108;2022-08-21T12:59:31;100797.09;;;35.01;37.72
4044;BME280;2036;51.578;7.108;2022-08-21T13:02:00;100804.75;;;35.29;38.30
4044;BME280;2036;51.578;7.108;2022-08-21T13:04:39;100810.97;;;35.50;38.60
4044;BME280;2036;51.578;7.108;2022-08-21T13:07:11;100810.97;;;35.70;39.08
4044;BME280;2036;51.578;7.108;2022-08-21T13:09:53;100813.91;;;35.94;38.01
4044;BME280;2036;51.578;7.108;2022-08-21T13:12:21;100814.53;;;35.40;37.18
4044;BME280;2036;51.578;7.108;2022-08-21T13:14:49;100805.25;;;34.91;36.83
4044;BME280;2036;51.578;7.108;2022-08-21T13:17:21;100807.16;;;35.00;38.39
4044;BME280;2036;51.578;7.108;2022-08-21T13:19:57;100802.22;;;34.67;38.38
4044;BME280;2036;51.578;7.108;2022-08-21T13:22:24;100804.22;;;35.02;39.87
4044;BME280;2036;51.578;7.108;2022-08-21T13:24:51;100795.44;;;34.85;36.67
4044;BME280;2036;51.578;7.108;2022-08-21T13:27:25;100805.81;;;34.83;37.96
4044;BME280;2036;51.578;7.108;2022-08-21T13:30:18;100804.38;;;34.50;37.30
4044;BME280;2036;51.578;7.108;2022-08-21T13:32:49;100798.19;;;34.95;38.59
4044;BME280;2036;51.578;7.108;2022-08-21T13:35:22;100802.28;;;35.13;38.24
4044;BME280;2036;51.578;7.108;2022-08-21T13:37:50;100799.84;;;35.21;37.62
4044;BME280;2036;51.578;7.108;2022-08-21T13:40:31;100797.66;;;35.13;37.57
4044;BME280;2036;51.578;7.108;2022-08-21T13:43:00;100790.84;;;35.16;37.59
4044;BME280;2036;51.578;7.108;2022-08-21T13:45:31;100796.00;;;34.92;36.56
4044;BME280;2036;51.578;7.108;2022-08-21T13:48:00;100807.16;;;34.65;36.83
4044;BME280;2036;51.578;7.108;2022-08-21T13:50:26;100792.81;;;33.61;36.46
4044;BME280;2036;51.578;7.108;2022-08-21T13:53:07;100803.53;;;33.04;37.01
4044;BME280;2036;51.578;7.108;2022-08-21T13:55:43;100803.84;;;32.32;36.87
4044;BME280;2036;51.578;7.108;2022-08-21T13:58:11;100802.75;;;32.07;37.68
4044;BME280;2036;51.578;7.108;2022-08-21T14:00:48;100794.84;;;32.05;38.16
4044;BME280;2036;51.578;7.108;2022-08-21T14:03:42;100800.25;;;31.84;38.14
4044;BME280;2036;51.578;7.108;2022-08-21T14:06:26;100797.97;;;31.59;38.49
4044;BME280;2036;51.578;7.108;2022-08-21T14:09:00;100801.00;;;31.79;38.71
4044;BME280;2036;51.578;7.108;2022-08-21T14:11:32;100797.00;;;31.65;38.91
4044;BME280;2036;51.578;7.108;2022-08-21T14:19:24;100806.97;;;31.26;38.76
4044;BME280;2036;51.578;7.108;2022-08-21T14:21:51;100795.03;;;30.94;39.08
4044;BME280;2036;51.578;7.108;2022-08-21T14:26:52;100804.03;;;30.38;39.54
4044;BME280;2036;51.578;7.108;2022-08-21T14:29:25;100799.72;;;30.14;39.11
4044;BME280;2036;51.578;7.108;2022-08-21T14:31:58;100802.00;;;29.82;39.96
4044;BME280;2036;51.578;7.108;2022-08-21T14:34:28;100802.00;;;29.47;40.35
4044;BME280;2036;51.578;7.108;2022-08-21T14:36:55;100797.88;;;29.22;40.57
4044;BME280;2036;51.578;7.108;2022-08-21T14:39:22;100800.78;;;28.97;41.25
4044;BME280;2036;51.578;7.108;2022-08-21T14:41:48;100796.38;;;28.84;41.19
4044;BME280;2036;51.578;7.108;2022-08-21T14:44:16;100786.75;;;28.59;42.49
4044;BME280;2036;51.578;7.108;2022-08-21T14:46:42;100792.13;;;28.47;42.34
4044;BME280;2036;51.578;7.108;2022-08-21T14:49:11;100789.88;;;28.44;43.01
4044;BME280;2036;51.578;7.108;2022-08-21T14:51:38;100794.84;;;28.29;42.69
4044;BME280;2036;51.578;7.108;2022-08-21T14:54:06;100797.34;;;28.30;42.30
4044;BME280;2036;51.578;7.108;2022-08-21T14:56:33;100788.16;;;28.31;42.95
4044;BME280;2036;51.578;7.108;2022-08-21T14:59:09;100786.75;;;28.29;42.96